Time;durP1;ratioP1;P1;durP2;ratioP2;P2;SDS_P1;SDS_P2;PMS_P1;PMS_P2;Temp;Humidity;BMP_temperature;BMP_pressure;BME280_temperature;BME280_humidity;BME280_pressure;Samples;Min_cycle;Max_cycle;Signal;HPM_P1;HPM_P2
2022/11/09 00:00:49;;;;;;;;;3.67;3.00;;;;;;;;5022440;28;46132;-68
2022/11/09 00:03:14;;;;;;;;;4.00;3.00;;;;;;;;5033008;28;45369;-67
2022/11/09 00:05:39;;;;;;;;;3.00;3.00;;;;;;;;5016426;28;45796;-69
2022/11/09 00:08:05;;;;;;;;;3.67;2.00;;;;;;;;5018366;28;45683;-68
2022/11/09 00:10:31;;;;;;;;;9.67;7.67;;;;;;;;5032748;28;46667;-68
2022/11/09 00:12:56;;;;;;;;;2.00;2.00;;;;;;;;5032912;28;45378;-68
2022/11/09 00:15:22;;;;;;;;;3.67;2.33;;;;;;;;5027347;28;45701;-68
2022/11/09 00:17:47;;;;;;;;;6.00;3.67;;;;;;;;5022716;28;45672;-68
2022/11/09 00:20:12;;;;;;;;;8.67;8.00;;;;;;;;5008976;28;48323;-68
2022/11/09 00:22:37;;;;;;;;;2.67;1.00;;;;;;;;5028249;28;45717;-68
2022/11/09 00:25:03;;;;;;;;;5.00;4.00;;;;;;;;5022026;28;45398;-68
2022/11/09 00:27:28;;;;;;;;;1.33;1.33;;;;;;;;5020129;28;45691;-67
2022/11/09 00:29:53;;;;;;;;;2.67;2.00;;;;;;;;5028263;28;46698;-68
2022/11/09 00:32:19;;;;;;;;;2.33;2.00;;;;;;;;5027692;28;45887;-68
2022/11/09 00:34:44;;;;;;;;;3.00;2.00;;;;;;;;4999976;28;45432;-68
2022/11/09 00:37:09;;;;;;;;;3.00;1.00;;;;;;;;5031363;28;45482;-69
2022/11/09 00:39:35;;;;;;;;;1.00;1.00;;;;;;;;5025052;28;45390;-70
2022/11/09 00:42:00;;;;;;;;;4.00;1.00;;;;;;;;5026292;28;45500;-70
2022/11/09 00:44:25;;;;;;;;;3.75;1.25;;;;;;;;5026449;28;45275;-68
2022/11/09 00:46:50;;;;;;;;;5.00;2.00;;;;;;;;5032894;28;45325;-68
2022/11/09 00:49:16;;;;;;;;;1.33;1.33;;;;;;;;5028849;28;45743;-68
2022/11/09 00:51:41;;;;;;;;;1.33;1.00;;;;;;;;5021977;28;45432;-68
2022/11/09 00:54:07;;;;;;;;;1.67;1.00;;;;;;;;5018272;28;45460;-67
2022/11/09 00:56:32;;;;;;;;;3.33;3.33;;;;;;;;5023009;28;45616;-69
2022/11/09 00:58:57;;;;;;;;;1.67;1.67;;;;;;;;5018934;28;45449;-68
2022/11/09 01:01:23;;;;;;;;;3.00;2.67;;;;;;;;5023296;28;46137;-68
2022/11/09 01:03:48;;;;;;;;;2.33;2.33;;;;;;;;5023823;28;46008;-67
2022/11/09 01:06:15;;;;;;;;;5.00;3.67;;;;;;;;5025187;28;46016;-68
2022/11/09 01:08:40;;;;;;;;;3.67;2.33;;;;;;;;5012652;28;46745;-67
2022/11/09 01:11:06;;;;;;;;;5.67;3.00;;;;;;;;5015685;28;45795;-67
2022/11/09 01:13:31;;;;;;;;;4.00;3.00;;;;;;;;5014179;28;45860;-68
2022/11/09 01:15:57;;;;;;;;;2.67;1.67;;;;;;;;5013759;28;45734;-68
2022/11/09 01:18:22;;;;;;;;;4.33;2.00;;;;;;;;5012164;28;45581;-68
2022/11/09 01:20:48;;;;;;;;;2.00;2.00;;;;;;;;5016317;28;45910;-67
2022/11/09 01:23:14;;;;;;;;;9.33;4.33;;;;;;;;5002665;28;45956;-67
2022/11/09 01:25:40;;;;;;;;;4.00;2.00;;;;;;;;5031436;28;45772;-69
2022/11/09 01:28:06;;;;;;;;;3.00;3.00;;;;;;;;5018878;28;48172;-68
2022/11/09 01:30:38;;;;;;;;;2.33;1.33;;;;;;;;5030255;28;45386;-67
2022/11/09 01:33:04;;;;;;;;;3.33;3.00;;;;;;;;5021960;28;45826;-68
2022/11/09 01:35:31;;;;;;;;;2.00;2.00;;;;;;;;5022985;28;45884;-68
2022/11/09 01:37:57;;;;;;;;;2.33;2.33;;;;;;;;5004667;28;47362;-67
2022/11/09 01:40:22;;;;;;;;;3.00;2.00;;;;;;;;5028924;28;45376;-68
2022/11/09 01:42:47;;;;;;;;;6.00;2.33;;;;;;;;5023432;28;45432;-68
2022/11/09 01:45:15;;;;;;;;;3.33;2.00;;;;;;;;5017397;28;45358;-67
2022/11/09 01:47:40;;;;;;;;;4.00;2.33;;;;;;;;5019825;28;45774;-68
2022/11/09 01:50:08;;;;;;;;;2.00;1.00;;;;;;;;5029686;28;45491;-68
2022/11/09 01:52:35;;;;;;;;;2.67;2.67;;;;;;;;5022267;28;45421;-69
2022/11/09 01:55:05;;;;;;;;;1.67;1.67;;;;;;;;5022021;28;45535;-68
2022/11/09 01:57:33;;;;;;;;;3.67;2.67;;;;;;;;5025341;28;46519;-68
2022/11/09 02:00:04;;;;;;;;;1.67;0.67;;;;;;;;5016835;28;45481;-71
2022/11/09 02:02:29;;;;;;;;;4.00;2.00;;;;;;;;5007496;28;45382;-68
2022/11/09 02:04:57;;;;;;;;;1.00;1.00;;;;;;;;5023294;28;45401;-68
2022/11/09 02:07:23;;;;;;;;;2.00;2.00;;;;;;;;5026484;28;45870;-68
2022/11/09 02:09:52;;;;;;;;;2.33;0.67;;;;;;;;5011570;28;45403;-68
2022/11/09 02:12:18;;;;;;;;;2.67;0.00;;;;;;;;5022580;28;45545;-68
2022/11/09 02:14:44;;;;;;;;;2.00;1.00;;;;;;;;5025716;28;45635;-68
2022/11/09 02:17:09;;;;;;;;;1.67;1.67;;;;;;;;5030824;28;45383;-69
2022/11/09 02:19:35;;;;;;;;;2.67;2.00;;;;;;;;5026960;28;45571;-68
2022/11/09 02:22:01;;;;;;;;;1.67;0.67;;;;;;;;5029082;28;45374;-67
2022/11/09 02:24:26;;;;;;;;;4.00;1.00;;;;;;;;5032410;28;45369;-68
2022/11/09 02:26:52;;;;;;;;;0.00;0.00;;;;;;;;5015065;28;46615;-69
2022/11/09 02:29:20;;;;;;;;;0.67;0.00;;;;;;;;5018689;28;45464;-69
2022/11/09 02:31:48;;;;;;;;;0.33;0.33;;;;;;;;5013792;28;45763;-68
2022/11/09 02:34:16;;;;;;;;;2.67;1.33;;;;;;;;5023032;28;45381;-68
2022/11/09 02:36:42;;;;;;;;;1.00;0.67;;;;;;;;5024012;28;45895;-67
2022/11/09 02:39:08;;;;;;;;;0.33;0.33;;;;;;;;5026583;28;45540;-66
2022/11/09 02:41:36;;;;;;;;;3.00;0.33;;;;;;;;5029209;28;45697;-71
2022/11/09 02:44:01;;;;;;;;;0.67;0.67;;;;;;;;5031077;28;45325;-70
2022/11/09 02:46:34;;;;;;;;;0.00;0.00;;;;;;;;5025422;28;47154;-70
2022/11/09 02:49:00;;;;;;;;;2.67;0.00;;;;;;;;5027780;28;45883;-69
2022/11/09 02:51:25;;;;;;;;;0.67;0.33;;;;;;;;5016702;28;45900;-69
2022/11/09 02:53:51;;;;;;;;;0.67;0.67;;;;;;;;5029851;28;45505;-72
2022/11/09 02:56:16;;;;;;;;;1.00;1.00;;;;;;;;5030229;28;45671;-69
2022/11/09 02:58:41;;;;;;;;;1.33;1.00;;;;;;;;5025335;28;45614;-69
2022/11/09 03:01:06;;;;;;;;;1.33;0.33;;;;;;;;5013182;28;45269;-68
2022/11/09 03:03:32;;;;;;;;;0.00;0.00;;;;;;;;5014808;28;47302;-67
2022/11/09 03:05:57;;;;;;;;;2.33;1.00;;;;;;;;5030596;28;46492;-69
2022/11/09 03:08:22;;;;;;;;;2.67;1.33;;;;;;;;5031044;28;45352;-68
2022/11/09 03:10:47;;;;;;;;;4.67;1.00;;;;;;;;5021244;28;45394;-68
2022/11/09 03:13:13;;;;;;;;;2.33;1.33;;;;;;;;5027436;28;45685;-67
2022/11/09 03:15:38;;;;;;;;;2.00;0.33;;;;;;;;5024465;28;45591;-70
2022/11/09 03:18:03;;;;;;;;;0.00;0.00;;;;;;;;5028313;28;45242;-70
2022/11/09 03:20:29;;;;;;;;;0.00;0.00;;;;;;;;5033022;28;45396;-70
2022/11/09 03:22:58;;;;;;;;;2.00;0.00;;;;;;;;5033713;28;45347;-70
2022/11/09 03:25:23;;;;;;;;;4.00;0.67;;;;;;;;5020733;28;46364;-70
2022/11/09 03:27:48;;;;;;;;;0.00;0.00;;;;;;;;5028563;28;45384;-70
2022/11/09 03:30:14;;;;;;;;;2.33;2.00;;;;;;;;5033344;28;45862;-68
2022/11/09 03:32:39;;;;;;;;;1.00;0.00;;;;;;;;5021474;28;45762;-68
2022/11/09 03:35:04;;;;;;;;;2.00;2.00;;;;;;;;5028618;28;45789;-68
2022/11/09 03:37:29;;;;;;;;;0.00;0.00;;;;;;;;5028489;28;45408;-67
2022/11/09 03:39:55;;;;;;;;;1.00;1.00;;;;;;;;5030038;28;45491;-67
2022/11/09 03:42:20;;;;;;;;;1.00;0.33;;;;;;;;5021720;28;45367;-68
2022/11/09 03:44:45;;;;;;;;;0.67;0.33;;;;;;;;5021744;28;45369;-67
2022/11/09 03:47:10;;;;;;;;;0.67;0.67;;;;;;;;5009352;28;45535;-69
2022/11/09 03:49:36;;;;;;;;;2.33;1.00;;;;;;;;5025438;28;45539;-69
2022/11/09 03:52:01;;;;;;;;;1.00;0.00;;;;;;;;5006294;28;47134;-69
2022/11/09 03:54:26;;;;;;;;;0.00;0.00;;;;;;;;5021126;28;46953;-66
2022/11/09 03:56:52;;;;;;;;;0.00;0.00;;;;;;;;5017721;28;45425;-67
2022/11/09 03:59:17;;;;;;;;;1.67;0.67;;;;;;;;5027237;28;45630;-68
2022/11/09 04:01:43;;;;;;;;;0.00;0.00;;;;;;;;5033486;28;45411;-66
2022/11/09 04:04:08;;;;;;;;;2.00;1.00;;;;;;;;5027836;28;45384;-67
2022/11/09 04:06:33;;;;;;;;;0.00;0.00;;;;;;;;5028089;28;45290;-68
2022/11/09 04:08:59;;;;;;;;;3.00;1.00;;;;;;;;5030948;28;45678;-66
2022/11/09 04:11:24;;;;;;;;;0.00;0.00;;;;;;;;5026591;28;46000;-68
2022/11/09 04:13:49;;;;;;;;;1.00;1.00;;;;;;;;5023340;28;45675;-67
2022/11/09 04:16:14;;;;;;;;;2.00;0.00;;;;;;;;5013677;28;45869;-68
2022/11/09 04:18:40;;;;;;;;;2.00;0.33;;;;;;;;5019025;28;45915;-68
2022/11/09 04:21:05;;;;;;;;;0.00;0.00;;;;;;;;5026281;28;45397;-67
2022/11/09 04:23:30;;;;;;;;;2.00;0.00;;;;;;;;5018305;28;46325;-67
2022/11/09 04:25:57;;;;;;;;;0.67;0.67;;;;;;;;5024455;28;45671;-67
2022/11/09 04:28:22;;;;;;;;;0.00;0.00;;;;;;;;5030838;28;45669;-67
2022/11/09 04:30:47;;;;;;;;;1.00;1.00;;;;;;;;5029193;28;45716;-67
2022/11/09 04:33:12;;;;;;;;;0.00;0.00;;;;;;;;5021796;28;45428;-66
2022/11/09 04:35:38;;;;;;;;;1.00;0.00;;;;;;;;5017804;28;45604;-67
2022/11/09 04:38:05;;;;;;;;;0.67;0.67;;;;;;;;5024241;28;45706;-69
2022/11/09 04:40:31;;;;;;;;;1.00;0.00;;;;;;;;5021826;28;47072;-70
2022/11/09 04:43:00;;;;;;;;;1.33;0.00;;;;;;;;5014077;28;45592;-68
2022/11/09 04:45:25;;;;;;;;;0.67;0.67;;;;;;;;5011560;28;45464;-68
2022/11/09 04:47:50;;;;;;;;;1.00;1.00;;;;;;;;5015251;28;45452;-67
2022/11/09 04:50:15;;;;;;;;;1.00;1.00;;;;;;;;5013919;28;45783;-68
2022/11/09 04:52:41;;;;;;;;;0.00;0.00;;;;;;;;5012530;28;45903;-68
2022/11/09 04:55:06;;;;;;;;;1.00;1.00;;;;;;;;5016034;28;45957;-68
2022/11/09 04:57:31;;;;;;;;;1.00;0.00;;;;;;;;5014094;28;45923;-67
2022/11/09 04:59:57;;;;;;;;;2.00;1.00;;;;;;;;5020997;28;45817;-67
2022/11/09 05:02:22;;;;;;;;;1.00;1.00;;;;;;;;5019745;28;45506;-68
2022/11/09 05:04:47;;;;;;;;;0.33;0.33;;;;;;;;5018441;28;45491;-67
2022/11/09 05:07:12;;;;;;;;;0.00;0.00;;;;;;;;5014706;28;45475;-68
2022/11/09 05:09:38;;;;;;;;;0.33;0.00;;;;;;;;5012400;28;46034;-68
2022/11/09 05:12:03;;;;;;;;;2.00;1.00;;;;;;;;5013100;28;46212;-67
2022/11/09 05:14:28;;;;;;;;;0.00;0.00;;;;;;;;4996250;28;45399;-67
2022/11/09 05:16:53;;;;;;;;;3.67;0.33;;;;;;;;5013495;28;45770;-69
2022/11/09 05:19:19;;;;;;;;;2.00;0.33;;;;;;;;5018004;28;45403;-69
2022/11/09 05:21:44;;;;;;;;;0.67;0.00;;;;;;;;5013603;28;46127;-67
2022/11/09 05:24:10;;;;;;;;;2.33;0.00;;;;;;;;5021493;28;45907;-67
2022/11/09 05:26:39;;;;;;;;;0.33;0.00;;;;;;;;5018258;28;45334;-68
2022/11/09 05:29:05;;;;;;;;;1.33;0.67;;;;;;;;5004267;28;45655;-67
2022/11/09 05:31:31;;;;;;;;;2.00;1.00;;;;;;;;5021138;28;46148;-69
2022/11/09 05:33:56;;;;;;;;;2.33;1.00;;;;;;;;5015421;28;46299;-68
2022/11/09 05:36:21;;;;;;;;;0.00;0.00;;;;;;;;5005141;28;45876;-67
2022/11/09 05:38:47;;;;;;;;;1.00;1.00;;;;;;;;5029592;28;45713;-67
2022/11/09 05:41:12;;;;;;;;;1.00;1.00;;;;;;;;5020568;28;46199;-68
2022/11/09 05:43:38;;;;;;;;;1.67;0.00;;;;;;;;5018242;28;45756;-68
2022/11/09 05:46:05;;;;;;;;;1.00;1.00;;;;;;;;5016715;28;45919;-68
2022/11/09 05:48:30;;;;;;;;;0.00;0.00;;;;;;;;5016837;28;45738;-66
2022/11/09 05:50:58;;;;;;;;;0.00;0.00;;;;;;;;5016133;28;45401;-67
2022/11/09 05:53:24;;;;;;;;;2.00;0.00;;;;;;;;5024243;28;45405;-67
2022/11/09 05:55:49;;;;;;;;;2.33;2.00;;;;;;;;5020843;28;45504;-68
2022/11/09 05:58:14;;;;;;;;;2.33;1.00;;;;;;;;5034558;28;46327;-68
2022/11/09 06:00:40;;;;;;;;;3.00;1.33;;;;;;;;5035349;28;45717;-69
2022/11/09 06:03:06;;;;;;;;;0.67;0.67;;;;;;;;5034887;28;46015;-70
2022/11/09 06:05:32;;;;;;;;;1.00;1.00;;;;;;;;5015161;28;45592;-70
2022/11/09 06:08:08;;;;;;;;;0.67;0.67;;;;;;;;5024214;28;45918;-67
2022/11/09 06:10:34;;;;;;;;;1.00;1.00;;;;;;;;5022491;28;45792;-68
2022/11/09 06:12:59;;;;;;;;;6.00;1.00;;;;;;;;5014895;28;45377;-69
2022/11/09 06:15:25;;;;;;;;;0.67;0.67;;;;;;;;5018071;28;46092;-69
2022/11/09 06:17:56;;;;;;;;;1.00;1.00;;;;;;;;5033247;28;45647;-68
2022/11/09 06:20:22;;;;;;;;;0.00;0.00;;;;;;;;5010918;28;47503;-69
2022/11/09 06:22:54;;;;;;;;;2.00;0.00;;;;;;;;5024965;28;45814;-70
2022/11/09 06:25:20;;;;;;;;;2.00;1.00;;;;;;;;5026490;28;45742;-69
2022/11/09 06:27:45;;;;;;;;;4.00;1.00;;;;;;;;5030289;28;45846;-68
2022/11/09 06:30:11;;;;;;;;;0.00;0.00;;;;;;;;5020966;28;46762;-70
2022/11/09 06:32:36;;;;;;;;;1.00;1.00;;;;;;;;5017613;28;45464;-70
2022/11/09 06:35:02;;;;;;;;;1.00;1.00;;;;;;;;5021572;28;45744;-69
2022/11/09 06:37:27;;;;;;;;;3.00;1.00;;;;;;;;5026532;28;45525;-69
2022/11/09 06:39:52;;;;;;;;;3.00;0.67;;;;;;;;5033154;28;45817;-70
2022/11/09 06:42:17;;;;;;;;;3.00;0.33;;;;;;;;5033155;28;45748;-69
2022/11/09 06:44:43;;;;;;;;;6.00;2.00;;;;;;;;5030898;28;45960;-71
2022/11/09 06:47:08;;;;;;;;;0.00;0.00;;;;;;;;5033579;28;45918;-71
2022/11/09 06:49:33;;;;;;;;;4.67;2.67;;;;;;;;5032818;28;45680;-69
2022/11/09 06:51:58;;;;;;;;;1.00;1.00;;;;;;;;5020269;28;45740;-69
2022/11/09 06:54:24;;;;;;;;;1.00;0.67;;;;;;;;5027266;28;45464;-69
2022/11/09 06:56:49;;;;;;;;;2.00;1.33;;;;;;;;5025474;28;47312;-66
2022/11/09 06:59:14;;;;;;;;;5.00;2.00;;;;;;;;5022378;28;45525;-69
2022/11/09 07:01:40;;;;;;;;;3.67;2.00;;;;;;;;5024126;28;45386;-68
2022/11/09 07:04:05;;;;;;;;;2.33;1.67;;;;;;;;5025124;28;45460;-67
2022/11/09 07:06:30;;;;;;;;;6.00;1.67;;;;;;;;5024933;28;45569;-69
2022/11/09 07:08:56;;;;;;;;;6.33;1.33;;;;;;;;5029686;28;46470;-68
2022/11/09 07:11:21;;;;;;;;;2.67;0.67;;;;;;;;5030699;28;45475;-67
2022/11/09 07:13:47;;;;;;;;;2.00;1.00;;;;;;;;5028001;28;45679;-67
2022/11/09 07:16:16;;;;;;;;;2.00;2.00;;;;;;;;5021641;28;45635;-72
2022/11/09 07:18:41;;;;;;;;;3.33;1.67;;;;;;;;5005816;28;48198;-70
2022/11/09 07:21:07;;;;;;;;;1.67;1.67;;;;;;;;5024719;28;45499;-70
2022/11/09 07:23:32;;;;;;;;;4.00;1.00;;;;;;;;5018758;28;45531;-70
2022/11/09 07:25:58;;;;;;;;;4.67;1.00;;;;;;;;5024923;28;45785;-70
2022/11/09 07:28:23;;;;;;;;;3.00;2.67;;;;;;;;5018614;28;46678;-68
2022/11/09 07:30:51;;;;;;;;;2.00;1.00;;;;;;;;5019675;28;45830;-68
2022/11/09 07:33:17;;;;;;;;;4.33;4.33;;;;;;;;5018552;28;45491;-68
2022/11/09 07:35:43;;;;;;;;;3.33;1.67;;;;;;;;5018448;28;45520;-69
2022/11/09 07:38:08;;;;;;;;;5.00;4.33;;;;;;;;5020650;28;45630;-67
2022/11/09 07:40:34;;;;;;;;;2.00;0.67;;;;;;;;5020020;28;45519;-68
2022/11/09 07:43:00;;;;;;;;;1.67;1.00;;;;;;;;5021185;28;45795;-69
2022/11/09 07:45:26;;;;;;;;;3.67;2.67;;;;;;;;5022736;28;45831;-68
2022/11/09 07:47:55;;;;;;;;;4.67;3.00;;;;;;;;5022067;28;45941;-69
2022/11/09 07:50:21;;;;;;;;;6.00;3.33;;;;;;;;5023051;28;45964;-70
2022/11/09 07:52:46;;;;;;;;;5.00;1.67;;;;;;;;5014913;28;45747;-68
2022/11/09 07:55:11;;;;;;;;;3.67;1.67;;;;;;;;5022698;28;46001;-72
2022/11/09 07:57:36;;;;;;;;;4.33;3.33;;;;;;;;5028626;28;46179;-72
2022/11/09 08:00:03;;;;;;;;;2.00;2.00;;;;;;;;5026009;28;46045;-70
2022/11/09 08:02:28;;;;;;;;;2.67;1.67;;;;;;;;5028734;28;45428;-70
2022/11/09 08:04:53;;;;;;;;;7.33;1.67;;;;;;;;5031459;28;45429;-69
2022/11/09 08:07:22;;;;;;;;;4.33;4.00;;;;;;;;5031071;28;45724;-70
2022/11/09 08:09:47;;;;;;;;;1.67;1.33;;;;;;;;5018733;28;45943;-69
2022/11/09 08:12:13;;;;;;;;;1.67;1.67;;;;;;;;5024180;28;45925;-69
2022/11/09 08:14:38;;;;;;;;;3.67;3.67;;;;;;;;5017433;28;45761;-69
2022/11/09 08:17:03;;;;;;;;;5.00;3.67;;;;;;;;5043412;28;46036;-71
2022/11/09 08:19:31;;;;;;;;;4.00;1.67;;;;;;;;5020841;28;46043;-70
2022/11/09 08:21:58;;;;;;;;;1.33;1.33;;;;;;;;5027632;28;45402;-69
2022/11/09 08:24:23;;;;;;;;;2.33;1.67;;;;;;;;5013888;28;45847;-70
2022/11/09 08:26:48;;;;;;;;;4.00;1.67;;;;;;;;5025256;28;45559;-74
2022/11/09 08:29:14;;;;;;;;;6.67;3.33;;;;;;;;5013044;28;45557;-73
2022/11/09 08:31:40;;;;;;;;;5.00;2.33;;;;;;;;5025357;28;45770;-71
2022/11/09 08:34:05;;;;;;;;;6.33;6.00;;;;;;;;5027627;28;45448;-68
2022/11/09 08:36:31;;;;;;;;;4.67;1.33;;;;;;;;5027093;28;46994;-68
2022/11/09 08:38:58;;;;;;;;;4.00;2.00;;;;;;;;5025648;28;45571;-71
2022/11/09 08:41:23;;;;;;;;;6.33;4.00;;;;;;;;5024749;28;45579;-71
2022/11/09 08:43:48;;;;;;;;;8.00;6.00;;;;;;;;5040197;28;45484;-68
2022/11/09 08:46:15;;;;;;;;;2.00;2.00;;;;;;;;5018196;28;45958;-69
2022/11/09 08:48:40;;;;;;;;;6.00;2.67;;;;;;;;5020702;28;45924;-68
2022/11/09 08:51:06;;;;;;;;;6.00;4.33;;;;;;;;5024901;28;45497;-70
2022/11/09 08:53:31;;;;;;;;;5.33;3.00;;;;;;;;5009622;28;45835;-70
2022/11/09 08:55:56;;;;;;;;;4.67;2.33;;;;;;;;5029226;28;47074;-72
2022/11/09 08:58:22;;;;;;;;;3.00;3.00;;;;;;;;5017801;28;45690;-73
2022/11/09 09:00:47;;;;;;;;;4.75;3.00;;;;;;;;5017106;28;45638;-72
2022/11/09 09:03:13;;;;;;;;;2.33;2.33;;;;;;;;5024994;28;45489;-73
2022/11/09 09:05:38;;;;;;;;;4.00;3.00;;;;;;;;5023435;28;47454;-75
2022/11/09 09:08:04;;;;;;;;;4.75;1.25;;;;;;;;5018314;28;45390;-74
2022/11/09 09:10:31;;;;;;;;;4.50;3.25;;;;;;;;5027831;28;45507;-71
2022/11/09 09:12:56;;;;;;;;;3.25;2.25;;;;;;;;5001121;28;46735;-72
2022/11/09 09:15:22;;;;;;;;;5.00;3.33;;;;;;;;5018221;28;45931;-72
2022/11/09 09:17:47;;;;;;;;;3.00;3.00;;;;;;;;5023160;28;45835;-73
2022/11/09 09:20:13;;;;;;;;;3.33;2.00;;;;;;;;5015378;28;45767;-73
2022/11/09 09:22:39;;;;;;;;;5.50;3.00;;;;;;;;5026155;28;45470;-72
2022/11/09 09:25:04;;;;;;;;;1.25;1.00;;;;;;;;5025815;28;47736;-72
2022/11/09 09:27:30;;;;;;;;;2.00;2.00;;;;;;;;5025366;28;45933;-71
2022/11/09 09:29:56;;;;;;;;;3.25;2.00;;;;;;;;5011744;28;45955;-71
2022/11/09 09:32:21;;;;;;;;;9.33;9.00;;;;;;;;5020287;28;45649;-70
2022/11/09 09:34:46;;;;;;;;;1.75;1.50;;;;;;;;5015699;28;45636;-72
2022/11/09 09:37:11;;;;;;;;;5.75;3.00;;;;;;;;5025228;28;45766;-71
2022/11/09 09:39:37;;;;;;;;;6.00;3.25;;;;;;;;4997505;28;45829;-71
2022/11/09 09:42:06;;;;;;;;;3.00;2.00;;;;;;;;5014215;28;45369;-72
2022/11/09 09:44:40;;;;;;;;;2.00;1.50;;;;;;;;5013718;28;45436;-71
2022/11/09 09:47:10;;;;;;;;;1.00;1.00;;;;;;;;5024921;28;45419;-72
2022/11/09 09:49:40;;;;;;;;;3.00;2.25;;;;;;;;5012549;28;45858;-73
2022/11/09 09:52:13;;;;;;;;;2.00;0.50;;;;;;;;5022492;28;45789;-74
2022/11/09 09:54:41;;;;;;;;;2.00;2.00;;;;;;;;5024736;28;45465;-72
2022/11/09 09:57:18;;;;;;;;;1.00;1.00;;;;;;;;5016840;28;45406;-72
2022/11/09 09:59:47;;;;;;;;;4.00;2.75;;;;;;;;5027380;28;45691;-72
2022/11/09 10:02:20;;;;;;;;;2.75;1.00;;;;;;;;5018731;28;45666;-70
2022/11/09 10:04:46;;;;;;;;;2.25;2.25;;;;;;;;5019811;28;46615;-73
2022/11/09 10:07:20;;;;;;;;;7.50;4.00;;;;;;;;5017332;28;45537;-73
2022/11/09 10:09:57;;;;;;;;;5.75;4.50;;;;;;;;5028165;28;45773;-72
2022/11/09 10:12:40;;;;;;;;;18.33;14.67;;;;;;;;5031994;28;45772;-70
2022/11/09 10:15:05;;;;;;;;;5.00;2.00;;;;;;;;5021919;28;45742;-71
2022/11/09 10:17:40;;;;;;;;;4.25;1.00;;;;;;;;5015951;28;45443;-71
2022/11/09 10:20:07;;;;;;;;;7.25;2.50;;;;;;;;5031602;28;45731;-72
2022/11/09 10:22:46;;;;;;;;;5.25;2.25;;;;;;;;5023485;28;45510;-72
2022/11/09 10:25:14;;;;;;;;;5.00;1.50;;;;;;;;5017334;28;45443;-72
2022/11/09 10:27:42;;;;;;;;;2.25;0.25;;;;;;;;5019774;28;45800;-72
2022/11/09 10:30:15;;;;;;;;;4.00;2.00;;;;;;;;5032306;28;45362;-73
2022/11/09 10:32:42;;;;;;;;;2.50;1.00;;;;;;;;5018656;28;45532;-72
2022/11/09 10:35:21;;;;;;;;;3.00;2.00;;;;;;;;5020772;28;45790;-72
2022/11/09 10:37:48;;;;;;;;;6.50;3.50;;;;;;;;5027603;28;45750;-72
2022/11/09 10:40:22;;;;;;;;;4.00;1.00;;;;;;;;5029430;28;45746;-72
2022/11/09 10:42:50;;;;;;;;;2.00;1.00;;;;;;;;5017974;28;45524;-72
2022/11/09 10:45:27;;;;;;;;;3.25;1.00;;;;;;;;5020887;28;45958;-72
2022/11/09 10:47:53;;;;;;;;;2.25;1.00;;;;;;;;5023686;28;45918;-74
2022/11/09 10:50:37;;;;;;;;;3.25;0.00;;;;;;;;5026919;28;45786;-72
2022/11/09 10:53:08;;;;;;;;;1.00;1.00;;;;;;;;5032653;28;45693;-72
2022/11/09 10:55:35;;;;;;;;;3.25;2.25;;;;;;;;5029365;28;46952;-74
2022/11/09 10:58:13;;;;;;;;;3.00;2.00;;;;;;;;5026785;28;45885;-74
2022/11/09 11:00:53;;;;;;;;;3.75;2.00;;;;;;;;5021093;28;45413;-74
2022/11/09 11:03:19;;;;;;;;;3.75;3.00;;;;;;;;5024341;28;45486;-74
2022/11/09 11:05:54;;;;;;;;;4.75;1.00;;;;;;;;5028163;28;46618;-72
2022/11/09 11:08:21;;;;;;;;;2.00;1.00;;;;;;;;5024552;28;45650;-72
2022/11/09 11:10:46;;;;;;;;;2.00;2.00;;;;;;;;5019828;28;45421;-74
2022/11/09 11:13:12;;;;;;;;;7.00;2.75;;;;;;;;5029642;28;45461;-74
2022/11/09 11:15:38;;;;;;;;;2.50;2.50;;;;;;;;5023242;28;45997;-73
2022/11/09 11:18:24;;;;;;;;;2.75;2.00;;;;;;;;5023158;28;45877;-76
2022/11/09 11:21:04;;;;;;;;;1.75;1.75;;;;;;;;5006908;28;45447;-73
2022/11/09 11:23:29;;;;;;;;;3.25;3.00;;;;;;;;5015300;28;45781;-74
2022/11/09 11:26:15;;;;;;;;;52.00;41.33;;;;;;;;5021760;28;46154;-73
2022/11/09 11:28:43;;;;;;;;;11.33;10.67;;;;;;;;5014853;28;45539;-74
2022/11/09 11:31:17;;;;;;;;;9.33;5.00;;;;;;;;5023396;28;45535;-72
2022/11/09 11:33:42;;;;;;;;;9.67;6.67;;;;;;;;5023550;28;45480;-75
2022/11/09 11:36:31;;;;;;;;;3.00;3.00;;;;;;;;5024902;28;46162;-75
2022/11/09 11:39:05;;;;;;;;;10.00;5.00;;;;;;;;5014306;28;45540;-72
2022/11/09 11:41:36;;;;;;;;;2.25;2.25;;;;;;;;5027569;28;45476;-75
2022/11/09 11:44:20;;;;;;;;;63.25;48.50;;;;;;;;5032065;28;45559;-73
2022/11/09 11:46:45;;;;;;;;;21.33;18.33;;;;;;;;5005879;28;46236;-76
2022/11/09 11:49:29;;;;;;;;;9.33;8.33;;;;;;;;5029381;28;45814;-76
2022/11/09 11:51:54;;;;;;;;;22.67;19.33;;;;;;;;5020822;28;45744;-75
2022/11/09 11:54:20;;;;;;;;;39.00;32.00;;;;;;;;5031904;28;45425;-75
2022/11/09 11:57:05;;;;;;;;;28.00;21.33;;;;;;;;5031874;28;45543;-76
2022/11/09 11:59:49;;;;;;;;;12.33;11.33;;;;;;;;5030559;28;45501;-74
2022/11/09 12:02:32;;;;;;;;;27.00;25.33;;;;;;;;5031876;28;45472;-78
2022/11/09 12:05:18;;;;;;;;;15.67;10.00;;;;;;;;5023809;28;45771;-75
2022/11/09 12:08:02;;;;;;;;;16.33;13.67;;;;;;;;5029972;28;45811;-75
2022/11/09 12:10:33;;;;;;;;;21.33;19.67;;;;;;;;5035508;28;45464;-78
2022/11/09 12:13:04;;;;;;;;;54.00;41.00;;;;;;;;5029920;28;45395;-77
2022/11/09 12:15:45;;;;;;;;;21.33;18.33;;;;;;;;5018271;28;46316;-72
2022/11/09 12:18:10;;;;;;;;;77.67;56.67;;;;;;;;5027337;28;45942;-75
2022/11/09 12:20:35;;;;;;;;;45.33;36.00;;;;;;;;5016833;28;45788;-73
2022/11/09 12:23:00;;;;;;;;;33.67;30.00;;;;;;;;5020479;28;45458;-74
2022/11/09 12:25:39;;;;;;;;;41.00;34.00;;;;;;;;5026583;28;45979;-77
2022/11/09 12:28:23;;;;;;;;;58.00;46.00;;;;;;;;5020339;28;45667;-76
2022/11/09 12:31:06;;;;;;;;;53.67;45.33;;;;;;;;5028241;28;45665;-74
2022/11/09 12:33:49;;;;;;;;;32.00;23.67;;;;;;;;5007258;28;45750;-74
2022/11/09 12:36:21;;;;;;;;;21.67;19.67;;;;;;;;5003740;28;46319;-73
2022/11/09 12:39:00;;;;;;;;;19.33;17.33;;;;;;;;5026580;28;45882;-73
2022/11/09 12:41:32;;;;;;;;;5.00;5.00;;;;;;;;5016203;28;45424;-73
2022/11/09 12:44:01;;;;;;;;;29.33;24.67;;;;;;;;5016517;28;45538;-75
2022/11/09 12:46:31;;;;;;;;;30.33;28.00;;;;;;;;5024084;28;45827;-76
2022/11/09 12:49:00;;;;;;;;;25.67;25.67;;;;;;;;5014110;28;47311;-76
2022/11/09 12:51:26;;;;;;;;;13.67;13.33;;;;;;;;5031135;28;45544;-77
2022/11/09 12:53:52;;;;;;;;;8.67;7.67;;;;;;;;5031026;28;45831;-74
2022/11/09 12:56:21;;;;;;;;;11.67;9.33;;;;;;;;5031104;28;45480;-75
2022/11/09 12:58:47;;;;;;;;;3.00;3.00;;;;;;;;5031570;28;46379;-77
2022/11/09 13:01:32;;;;;;;;;6.00;2.50;;;;;;;;5019899;28;46777;-76
2022/11/09 13:03:59;;;;;;;;;4.00;2.75;;;;;;;;5021859;28;45831;-71
2022/11/09 13:06:28;;;;;;;;;6.50;2.00;;;;;;;;5025320;28;45908;-71
2022/11/09 13:09:24;;;;;;;;;3.50;1.25;;;;;;;;5025315;28;46216;-75
2022/11/09 13:11:51;;;;;;;;;2.75;1.00;;;;;;;;5020977;28;45706;-75
2022/11/09 13:14:27;;;;;;;;;4.25;3.00;;;;;;;;5024655;28;45845;-76
2022/11/09 13:16:57;;;;;;;;;2.00;1.25;;;;;;;;5023749;28;46193;-77
2022/11/09 13:19:35;;;;;;;;;1.75;1.75;;;;;;;;5008432;28;46877;-74
2022/11/09 13:22:22;;;;;;;;;2.75;2.00;;;;;;;;5027787;28;45822;-74
2022/11/09 13:25:00;;;;;;;;;0.75;0.00;;;;;;;;5022307;28;46162;-76
2022/11/09 13:27:44;;;;;;;;;2.50;1.00;;;;;;;;5025753;28;45476;-68
2022/11/09 13:30:29;;;;;;;;;1.00;0.00;;;;;;;;5027345;28;45705;-68
2022/11/09 13:33:10;;;;;;;;;1.25;1.25;;;;;;;;5014330;28;45518;-70
2022/11/09 13:35:41;;;;;;;;;0.25;0.25;;;;;;;;5024164;28;45500;-68
2022/11/09 13:38:19;;;;;;;;;2.00;0.00;;;;;;;;5025870;28;45534;-74
2022/11/09 13:40:48;;;;;;;;;0.25;0.25;;;;;;;;5026608;28;45586;-74
2022/11/09 13:43:16;;;;;;;;;3.25;1.00;;;;;;;;5010516;28;45875;-74
2022/11/09 13:46:00;;;;;;;;;1.75;1.00;;;;;;;;5008173;28;45905;-75
2022/11/09 13:48:46;;;;;;;;;2.50;0.00;;;;;;;;5010160;28;46960;-74
2022/11/09 13:51:17;;;;;;;;;2.00;2.00;;;;;;;;5033973;28;45438;-76
2022/11/09 13:53:54;;;;;;;;;4.00;0.75;;;;;;;;5032670;28;45642;-75
2022/11/09 13:56:29;;;;;;;;;0.00;0.00;;;;;;;;5026946;28;45619;-75
2022/11/09 13:59:18;;;;;;;;;0.00;0.00;;;;;;;;5035473;28;45518;-74
2022/11/09 14:02:04;;;;;;;;;2.50;0.50;;;;;;;;5028636;28;46757;-74
2022/11/09 14:04:32;;;;;;;;;1.50;0.00;;;;;;;;4998130;28;45333;-74
2022/11/09 14:07:16;;;;;;;;;1.00;0.00;;;;;;;;5017236;28;45485;-74
2022/11/09 14:10:00;;;;;;;;;1.00;0.75;;;;;;;;5031762;28;45409;-74
2022/11/09 14:12:45;;;;;;;;;2.00;1.00;;;;;;;;5028193;28;46387;-73
2022/11/09 14:15:21;;;;;;;;;1.00;1.00;;;;;;;;5028993;28;45500;-74
2022/11/09 14:17:46;;;;;;;;;5.00;1.00;;;;;;;;5031145;28;45626;-75
2022/11/09 14:20:12;;;;;;;;;1.00;1.00;;;;;;;;5020173;28;45546;-73
2022/11/09 14:22:39;;;;;;;;;0.25;0.00;;;;;;;;5028457;28;45491;-75
2022/11/09 14:25:14;;;;;;;;;4.33;1.00;;;;;;;;5033109;28;45412;-76
2022/11/09 14:27:55;;;;;;;;;0.00;0.00;;;;;;;;5031236;28;45435;-74
2022/11/09 14:30:22;;;;;;;;;1.00;1.00;;;;;;;;5026929;28;45857;-75
2022/11/09 14:32:49;;;;;;;;;2.00;1.00;;;;;;;;4997328;28;47622;-74
2022/11/09 14:35:21;;;;;;;;;1.00;0.00;;;;;;;;5016817;28;45674;-75
2022/11/09 14:37:48;;;;;;;;;0.00;0.00;;;;;;;;5019479;28;45573;-74
2022/11/09 14:40:16;;;;;;;;;0.00;0.00;;;;;;;;5019251;28;45369;-76
2022/11/09 14:42:45;;;;;;;;;0.75;0.75;;;;;;;;5012423;28;47243;-74
2022/11/09 14:45:13;;;;;;;;;1.00;1.00;;;;;;;;5016225;28;45807;-73
2022/11/09 14:47:38;;;;;;;;;0.00;0.00;;;;;;;;4996852;28;45495;-74